sensor_id;sensor_type;location;lat;lon;timestamp;temperature;humidity
72355;SHT30;60314;55.040;73.076;2022-09-27T00:01:32;2.77;81.46
72355;SHT30;60314;55.040;73.076;2022-09-27T00:03:59;2.75;81.49
72355;SHT30;60314;55.040;73.076;2022-09-27T00:06:28;2.77;81.24
72355;SHT30;60314;55.040;73.076;2022-09-27T00:08:56;2.76;80.58
72355;SHT30;60314;55.040;73.076;2022-09-27T00:11:37;2.67;80.96
72355;SHT30;60314;55.040;73.076;2022-09-27T00:14:06;2.61;81.38
72355;SHT30;60314;55.040;73.076;2022-09-27T00:16:34;2.48;81.36
72355;SHT30;60314;55.040;73.076;2022-09-27T00:19:07;2.39;81.65
72355;SHT30;60314;55.040;73.076;2022-09-27T00:21:35;2.39;81.86
72355;SHT30;60314;55.040;73.076;2022-09-27T00:24:08;2.40;81.92
72355;SHT30;60314;55.040;73.076;2022-09-27T00:26:36;2.40;81.88
72355;SHT30;60314;55.040;73.076;2022-09-27T00:29:03;2.43;82.01
72355;SHT30;60314;55.040;73.076;2022-09-27T00:31:30;2.45;82.20
72355;SHT30;60314;55.040;73.076;2022-09-27T00:33:59;2.48;82.13
72355;SHT30;60314;55.040;73.076;2022-09-27T00:36:27;2.49;82.11
72355;SHT30;60314;55.040;73.076;2022-09-27T00:38:54;2.48;82.13
72355;SHT30;60314;55.040;73.076;2022-09-27T00:41:34;2.46;82.36
72355;SHT30;60314;55.040;73.076;2022-09-27T00:49:36;2.43;82.88
72355;SHT30;60314;55.040;73.076;2022-09-27T00:52:10;2.39;82.83
72355;SHT30;60314;55.040;73.076;2022-09-27T00:54:39;2.32;83.32
72355;SHT30;60314;55.040;73.076;2022-09-27T00:57:08;2.32;82.36
72355;SHT30;60314;55.040;73.076;2022-09-27T00:59:59;2.29;83.37
72355;SHT30;60314;55.040;73.076;2022-09-27T01:02:27;2.22;83.79
72355;SHT30;60314;55.040;73.076;2022-09-27T01:04:54;2.36;83.45
72355;SHT30;60314;55.040;73.076;2022-09-27T01:07:21;2.29;83.16
72355;SHT30;60314;55.040;73.076;2022-09-27T01:09:48;2.32;83.44
72355;SHT30;60314;55.040;73.076;2022-09-27T01:15:25;2.33;82.80
72355;SHT30;60314;55.040;73.076;2022-09-27T01:26:13;2.35;82.06
72355;SHT30;60314;55.040;73.076;2022-09-27T01:34:46;2.36;82.13
72355;SHT30;60314;55.040;73.076;2022-09-27T01:37:56;2.33;82.67
72355;SHT30;60314;55.040;73.076;2022-09-27T01:40:53;2.32;82.55
72355;SHT30;60314;55.040;73.076;2022-09-27T01:43:47;2.29;82.32
72355;SHT30;60314;55.040;73.076;2022-09-27T01:46:27;2.21;82.42
72355;SHT30;60314;55.040;73.076;2022-09-27T01:49:16;2.17;82.71
72355;SHT30;60314;55.040;73.076;2022-09-27T01:51:47;2.15;82.82
72355;SHT30;60314;55.040;73.076;2022-09-27T01:54:22;2.08;82.80
72355;SHT30;60314;55.040;73.076;2022-09-27T01:57:26;2.14;83.42
72355;SHT30;60314;55.040;73.076;2022-09-27T02:00:00;2.15;83.20
72355;SHT30;60314;55.040;73.076;2022-09-27T02:02:44;2.01;84.14
72355;SHT30;60314;55.040;73.076;2022-09-27T02:05:51;2.08;84.19
72355;SHT30;60314;55.040;73.076;2022-09-27T02:09:05;2.12;84.38
72355;SHT30;60314;55.040;73.076;2022-09-27T02:12:02;1.98;84.60
72355;SHT30;60314;55.040;73.076;2022-09-27T02:14:44;1.85;84.07
72355;SHT30;60314;55.040;73.076;2022-09-27T02:22:40;1.63;84.39
72355;SHT30;60314;55.040;73.076;2022-09-27T02:25:48;1.73;84.91
72355;SHT30;60314;55.040;73.076;2022-09-27T02:28:34;1.61;84.64
72355;SHT30;60314;55.040;73.076;2022-09-27T02:31:04;1.58;85.31
72355;SHT30;60314;55.040;73.076;2022-09-27T02:33:47;1.60;84.93
72355;SHT30;60314;55.040;73.076;2022-09-27T02:36:15;1.56;84.98
72355;SHT30;60314;55.040;73.076;2022-09-27T02:38:43;1.53;85.26
72355;SHT30;60314;55.040;73.076;2022-09-27T02:41:18;1.50;84.90
72355;SHT30;60314;55.040;73.076;2022-09-27T02:43:56;1.47;85.00
72355;SHT30;60314;55.040;73.076;2022-09-27T03:02:03;1.48;85.40
72355;SHT30;60314;55.040;73.076;2022-09-27T03:04:56;1.51;84.82
72355;SHT30;60314;55.040;73.076;2022-09-27T03:07:25;1.56;84.57
72355;SHT30;60314;55.040;73.076;2022-09-27T03:09:54;1.44;84.47
72355;SHT30;60314;55.040;73.076;2022-09-27T03:12:31;1.46;84.97
72355;SHT30;60314;55.040;73.076;2022-09-27T03:15:03;1.50;85.12
72355;SHT30;60314;55.040;73.076;2022-09-27T03:17:48;1.43;84.91
72355;SHT30;60314;55.040;73.076;2022-09-27T03:20:33;1.40;84.88
72355;SHT30;60314;55.040;73.076;2022-09-27T03:23:10;1.50;84.86
72355;SHT30;60314;55.040;73.076;2022-09-27T03:25:37;1.51;84.38
72355;SHT30;60314;55.040;73.076;2022-09-27T03:28:04;1.44;84.70
72355;SHT30;60314;55.040;73.076;2022-09-27T03:30:31;1.47;84.98
72355;SHT30;60314;55.040;73.076;2022-09-27T03:32:58;1.47;84.86
72355;SHT30;60314;55.040;73.076;2022-09-27T03:35:43;1.42;84.21
72355;SHT30;60314;55.040;73.076;2022-09-27T03:38:09;1.42;84.49
72355;SHT30;60314;55.040;73.076;2022-09-27T03:40:37;1.35;84.58
72355;SHT30;60314;55.040;73.076;2022-09-27T03:43:05;1.29;84.57
72355;SHT30;60314;55.040;73.076;2022-09-27T03:45:32;1.13;84.84
72355;SHT30;60314;55.040;73.076;2022-09-27T03:48:03;1.19;85.06
72355;SHT30;60314;55.040;73.076;2022-09-27T03:50:32;1.13;85.35
72355;SHT30;60314;55.040;73.076;2022-09-27T03:52:58;1.15;85.38
72355;SHT30;60314;55.040;73.076;2022-09-27T03:55:25;1.17;85.09
72355;SHT30;60314;55.040;73.076;2022-09-27T03:57:52;1.27;85.16
72355;SHT30;60314;55.040;73.076;2022-09-27T04:00:20;1.19;84.76
72355;SHT30;60314;55.040;73.076;2022-09-27T04:02:46;1.17;85.29
72355;SHT30;60314;55.040;73.076;2022-09-27T04:05:23;1.16;85.27
72355;SHT30;60314;55.040;73.076;2022-09-27T04:07:53;1.10;85.39
72355;SHT30;60314;55.040;73.076;2022-09-27T04:10:20;1.10;85.55
72355;SHT30;60314;55.040;73.076;2022-09-27T04:12:48;1.16;85.64
72355;SHT30;60314;55.040;73.076;2022-09-27T04:15:14;1.07;85.54
72355;SHT30;60314;55.040;73.076;2022-09-27T04:18:05;1.13;85.34
72355;SHT30;60314;55.040;73.076;2022-09-27T04:20:32;1.12;85.60
72355;SHT30;60314;55.040;73.076;2022-09-27T04:23:04;1.17;85.68
72355;SHT30;60314;55.040;73.076;2022-09-27T04:25:31;1.16;85.17
72355;SHT30;60314;55.040;73.076;2022-09-27T04:28:08;1.12;85.16
72355;SHT30;60314;55.040;73.076;2022-09-27T04:30:34;1.15;85.18
72355;SHT30;60314;55.040;73.076;2022-09-27T04:33:21;1.20;84.64
72355;SHT30;60314;55.040;73.076;2022-09-27T04:36:16;1.23;84.97
72355;SHT30;60314;55.040;73.076;2022-09-27T04:39:12;1.22;85.00
72355;SHT30;60314;55.040;73.076;2022-09-27T04:41:41;1.23;85.01
72355;SHT30;60314;55.040;73.076;2022-09-27T04:44:08;1.26;84.94
72355;SHT30;60314;55.040;73.076;2022-09-27T04:46:41;1.30;85.11
72355;SHT30;60314;55.040;73.076;2022-09-27T04:49:10;1.29;84.64
72355;SHT30;60314;55.040;73.076;2022-09-27T04:51:36;1.30;85.35
72355;SHT30;60314;55.040;73.076;2022-09-27T04:54:04;1.30;84.72
72355;SHT30;60314;55.040;73.076;2022-09-27T04:56:40;1.37;84.66
72355;SHT30;60314;55.040;73.076;2022-09-27T04:59:10;1.46;84.37
72355;SHT30;60314;55.040;73.076;2022-09-27T05:01:36;1.60;84.30
72355;SHT30;60314;55.040;73.076;2022-09-27T05:04:13;1.64;83.89
72355;SHT30;60314;55.040;73.076;2022-09-27T05:06:44;1.77;83.51
72355;SHT30;60314;55.040;73.076;2022-09-27T05:09:27;1.66;83.43
72355;SHT30;60314;55.040;73.076;2022-09-27T05:11:56;1.64;82.86
72355;SHT30;60314;55.040;73.076;2022-09-27T05:14:31;1.61;83.32
72355;SHT30;60314;55.040;73.076;2022-09-27T05:17:29;1.70;83.00
72355;SHT30;60314;55.040;73.076;2022-09-27T05:20:02;1.79;83.36
72355;SHT30;60314;55.040;73.076;2022-09-27T05:22:39;1.66;82.94
72355;SHT30;60314;55.040;73.076;2022-09-27T05:25:07;1.60;83.12
72355;SHT30;60314;55.040;73.076;2022-09-27T05:27:34;1.66;82.67
72355;SHT30;60314;55.040;73.076;2022-09-27T05:30:01;1.63;83.32
72355;SHT30;60314;55.040;73.076;2022-09-27T05:32:44;1.70;83.72
72355;SHT30;60314;55.040;73.076;2022-09-27T05:35:34;1.75;83.14
72355;SHT30;60314;55.040;73.076;2022-09-27T05:38:01;1.81;83.58
72355;SHT30;60314;55.040;73.076;2022-09-27T05:40:34;1.81;82.94
72355;SHT30;60314;55.040;73.076;2022-09-27T05:43:03;1.78;83.40
72355;SHT30;60314;55.040;73.076;2022-09-27T05:45:31;1.73;83.24
72355;SHT30;60314;55.040;73.076;2022-09-27T05:48:02;1.77;83.65
72355;SHT30;60314;55.040;73.076;2022-09-27T05:50:33;1.89;83.45
72355;SHT30;60314;55.040;73.076;2022-09-27T05:53:00;1.82;83.10
72355;SHT30;60314;55.040;73.076;2022-09-27T05:55:27;1.89;83.47
72355;SHT30;60314;55.040;73.076;2022-09-27T05:58:01;1.88;83.30
72355;SHT30;60314;55.040;73.076;2022-09-27T06:00:48;1.77;83.35
72355;SHT30;60314;55.040;73.076;2022-09-27T06:03:35;1.61;84.37
72355;SHT30;60314;55.040;73.076;2022-09-27T06:06:08;1.61;84.23
72355;SHT30;60314;55.040;73.076;2022-09-27T06:08:45;1.58;84.45
72355;SHT30;60314;55.040;73.076;2022-09-27T06:11:26;1.48;84.41
72355;SHT30;60314;55.040;73.076;2022-09-27T06:13:57;1.61;84.54
72355;SHT30;60314;55.040;73.076;2022-09-27T06:16:25;1.57;83.94
72355;SHT30;60314;55.040;73.076;2022-09-27T06:18:53;1.56;83.90
72355;SHT30;60314;55.040;73.076;2022-09-27T06:21:20;1.61;84.04
72355;SHT30;60314;55.040;73.076;2022-09-27T06:23:54;1.61;84.03
72355;SHT30;60314;55.040;73.076;2022-09-27T06:26:28;1.46;84.29
72355;SHT30;60314;55.040;73.076;2022-09-27T06:29:08;1.33;84.87
72355;SHT30;60314;55.040;73.076;2022-09-27T06:31:38;1.37;84.79
72355;SHT30;60314;55.040;73.076;2022-09-27T06:34:18;1.43;84.65
72355;SHT30;60314;55.040;73.076;2022-09-27T06:36:44;1.48;84.19
72355;SHT30;60314;55.040;73.076;2022-09-27T06:39:25;1.56;84.60
72355;SHT30;60314;55.040;73.076;2022-09-27T06:42:10;1.47;84.04
72355;SHT30;60314;55.040;73.076;2022-09-27T06:44:55;1.47;84.58
72355;SHT30;60314;55.040;73.076;2022-09-27T06:47:43;1.44;84.72
72355;SHT30;60314;55.040;73.076;2022-09-27T06:50:35;1.46;84.64
72355;SHT30;60314;55.040;73.076;2022-09-27T06:53:04;1.50;84.20
72355;SHT30;60314;55.040;73.076;2022-09-27T06:55:33;1.44;84.26
72355;SHT30;60314;55.040;73.076;2022-09-27T06:58:00;1.40;84.36
72355;SHT30;60314;55.040;73.076;2022-09-27T07:01:05;1.40;84.76
72355;SHT30;60314;55.040;73.076;2022-09-27T07:03:50;1.58;84.69
72355;SHT30;60314;55.040;73.076;2022-09-27T07:06:26;1.63;84.59
72355;SHT30;60314;55.040;73.076;2022-09-27T07:09:08;1.46;84.57
72355;SHT30;60314;55.040;73.076;2022-09-27T07:11:34;1.42;85.52
72355;SHT30;60314;55.040;73.076;2022-09-27T07:14:05;1.37;85.31
72355;SHT30;60314;55.040;73.076;2022-09-27T07:16:33;1.35;85.40
72355;SHT30;60314;55.040;73.076;2022-09-27T07:19:07;1.33;85.72
72355;SHT30;60314;55.040;73.076;2022-09-27T07:21:34;1.33;85.98
72355;SHT30;60314;55.040;73.076;2022-09-27T07:24:00;1.36;85.82
72355;SHT30;60314;55.040;73.076;2022-09-27T07:26:27;1.37;84.83
72355;SHT30;60314;55.040;73.076;2022-09-27T07:28:54;1.27;85.13
72355;SHT30;60314;55.040;73.076;2022-09-27T07:31:24;1.40;85.69
72355;SHT30;60314;55.040;73.076;2022-09-27T07:33:51;1.39;85.42
72355;SHT30;60314;55.040;73.076;2022-09-27T07:36:18;1.33;85.74
72355;SHT30;60314;55.040;73.076;2022-09-27T07:38:46;1.23;85.70
72355;SHT30;60314;55.040;73.076;2022-09-27T07:41:29;1.13;85.89
72355;SHT30;60314;55.040;73.076;2022-09-27T07:44:07;1.10;86.21
72355;SHT30;60314;55.040;73.076;2022-09-27T07:46:45;1.10;86.53
72355;SHT30;60314;55.040;73.076;2022-09-27T07:49:21;1.06;87.35
72355;SHT30;60314;55.040;73.076;2022-09-27T07:51:54;1.07;86.21
72355;SHT30;60314;55.040;73.076;2022-09-27T07:54:39;1.02;86.65
72355;SHT30;60314;55.040;73.076;2022-09-27T07:57:25;1.05;86.19
72355;SHT30;60314;55.040;73.076;2022-09-27T07:59:53;1.06;87.15
72355;SHT30;60314;55.040;73.076;2022-09-27T08:02:22;1.05;86.80
72355;SHT30;60314;55.040;73.076;2022-09-27T08:04:50;1.07;86.71
72355;SHT30;60314;55.040;73.076;2022-09-27T08:07:18;1.02;87.01
72355;SHT30;60314;55.040;73.076;2022-09-27T08:09:49;1.02;86.77
72355;SHT30;60314;55.040;73.076;2022-09-27T08:12:16;1.09;86.91
72355;SHT30;60314;55.040;73.076;2022-09-27T08:14:43;1.06;86.15
72355;SHT30;60314;55.040;73.076;2022-09-27T08:17:10;1.02;86.94
72355;SHT30;60314;55.040;73.076;2022-09-27T08:19:55;1.10;87.56
72355;SHT30;60314;55.040;73.076;2022-09-27T08:22:56;1.10;87.24
72355;SHT30;60314;55.040;73.076;2022-09-27T08:25:43;1.07;86.86
72355;SHT30;60314;55.040;73.076;2022-09-27T08:28:34;0.99;87.08
72355;SHT30;60314;55.040;73.076;2022-09-27T08:31:05;0.95;86.91
72355;SHT30;60314;55.040;73.076;2022-09-27T08:33:31;0.93;87.78
72355;SHT30;60314;55.040;73.076;2022-09-27T08:35:59;0.96;87.41
72355;SHT30;60314;55.040;73.076;2022-09-27T08:38:26;1.05;87.54
72355;SHT30;60314;55.040;73.076;2022-09-27T08:40:58;1.05;86.95
72355;SHT30;60314;55.040;73.076;2022-09-27T08:46:14;1.13;87.02
72355;SHT30;60314;55.040;73.076;2022-09-27T08:48:50;1.06;86.97
72355;SHT30;60314;55.040;73.076;2022-09-27T08:51:22;1.12;87.73
72355;SHT30;60314;55.040;73.076;2022-09-27T08:54:05;1.16;87.23
72355;SHT30;60314;55.040;73.076;2022-09-27T08:56:33;1.27;87.36
72355;SHT30;60314;55.040;73.076;2022-09-27T08:59:09;1.23;87.10
72355;SHT30;60314;55.040;73.076;2022-09-27T09:01:37;1.26;86.39
72355;SHT30;60314;55.040;73.076;2022-09-27T09:04:14;1.16;86.94
72355;SHT30;60314;55.040;73.076;2022-09-27T09:06:59;1.19;86.91
72355;SHT30;60314;55.040;73.076;2022-09-27T09:19:02;1.13;86.50
72355;SHT30;60314;55.040;73.076;2022-09-27T09:25:02;1.16;86.59
72355;SHT30;60314;55.040;73.076;2022-09-27T09:30:46;1.29;87.36
72355;SHT30;60314;55.040;73.076;2022-09-27T09:33:28;1.36;86.83
72355;SHT30;60314;55.040;73.076;2022-09-27T09:38:55;1.48;87.33
72355;SHT30;60314;55.040;73.076;2022-09-27T09:44:20;1.53;86.66
72355;SHT30;60314;55.040;73.076;2022-09-27T09:46:50;1.51;86.40
72355;SHT30;60314;55.040;73.076;2022-09-27T09:52:04;1.46;86.72
72355;SHT30;60314;55.040;73.076;2022-09-27T09:54:37;1.37;87.10
72355;SHT30;60314;55.040;73.076;2022-09-27T09:57:39;1.30;87.63
72355;SHT30;60314;55.040;73.076;2022-09-27T10:00:17;1.27;87.84
72355;SHT30;60314;55.040;73.076;2022-09-27T10:02:46;1.32;87.52
72355;SHT30;60314;55.040;73.076;2022-09-27T10:05:20;1.32;87.76
72355;SHT30;60314;55.040;73.076;2022-09-27T10:08:01;1.25;87.33
72355;SHT30;60314;55.040;73.076;2022-09-27T10:10:30;1.20;87.07
72355;SHT30;60314;55.040;73.076;2022-09-27T10:13:18;1.16;87.37
72355;SHT30;60314;55.040;73.076;2022-09-27T10:15:59;1.22;87.50
72355;SHT30;60314;55.040;73.076;2022-09-27T10:18:39;1.20;87.67
72355;SHT30;60314;55.040;73.076;2022-09-27T10:21:25;1.23;87.67
72355;SHT30;60314;55.040;73.076;2022-09-27T10:24:04;1.22;87.59
72355;SHT30;60314;55.040;73.076;2022-09-27T10:26:49;1.27;87.06
72355;SHT30;60314;55.040;73.076;2022-09-27T10:29:29;1.27;87.39
72355;SHT30;60314;55.040;73.076;2022-09-27T10:31:56;1.27;87.43
72355;SHT30;60314;55.040;73.076;2022-09-27T10:34:40;1.27;86.92
72355;SHT30;60314;55.040;73.076;2022-09-27T10:37:19;1.26;86.39
72355;SHT30;60314;55.040;73.076;2022-09-27T10:40:25;1.20;87.34
72355;SHT30;60314;55.040;73.076;2022-09-27T10:42:53;1.19;87.33
72355;SHT30;60314;55.040;73.076;2022-09-27T10:45:30;1.17;87.21
72355;SHT30;60314;55.040;73.076;2022-09-27T10:48:04;1.17;86.92
72355;SHT30;60314;55.040;73.076;2022-09-27T10:50:36;1.22;87.48
72355;SHT30;60314;55.040;73.076;2022-09-27T10:53:24;1.20;87.09
72355;SHT30;60314;55.040;73.076;2022-09-27T10:56:02;1.16;86.66
72355;SHT30;60314;55.040;73.076;2022-09-27T10:58:32;1.12;87.23
72355;SHT30;60314;55.040;73.076;2022-09-27T11:01:04;1.16;86.69
72355;SHT30;60314;55.040;73.076;2022-09-27T11:03:49;1.15;87.03
72355;SHT30;60314;55.040;73.076;2022-09-27T11:08:50;1.17;87.70
72355;SHT30;60314;55.040;73.076;2022-09-27T11:11:19;1.09;87.48
72355;SHT30;60314;55.040;73.076;2022-09-27T11:14:01;1.13;88.10
72355;SHT30;60314;55.040;73.076;2022-09-27T11:25:15;1.02;87.79
72355;SHT30;60314;55.040;73.076;2022-09-27T11:28:11;1.00;88.20
72355;SHT30;60314;55.040;73.076;2022-09-27T11:31:24;1.00;88.80
72355;SHT30;60314;55.040;73.076;2022-09-27T11:34:08;0.95;88.92
72355;SHT30;60314;55.040;73.076;2022-09-27T11:45:21;0.91;89.06
72355;SHT30;60314;55.040;73.076;2022-09-27T11:50:51;0.84;89.27
72355;SHT30;60314;55.040;73.076;2022-09-27T11:56:23;0.74;89.30
72355;SHT30;60314;55.040;73.076;2022-09-27T11:59:45;0.74;88.77
72355;SHT30;60314;55.040;73.076;2022-09-27T12:10:29;0.75;88.31
72355;SHT30;60314;55.040;73.076;2022-09-27T12:12:56;0.76;88.45
72355;SHT30;60314;55.040;73.076;2022-09-27T12:15:29;0.74;88.00
72355;SHT30;60314;55.040;73.076;2022-09-27T12:18:13;0.72;88.38
72355;SHT30;60314;55.040;73.076;2022-09-27T12:20:43;0.68;88.01
72355;SHT30;60314;55.040;73.076;2022-09-27T12:23:42;0.61;87.95
72355;SHT30;60314;55.040;73.076;2022-09-27T12:26:38;0.58;88.33
72355;SHT30;60314;55.040;73.076;2022-09-27T12:29:26;0.58;88.60
72355;SHT30;60314;55.040;73.076;2022-09-27T12:32:04;0.62;89.10
72355;SHT30;60314;55.040;73.076;2022-09-27T12:37:26;0.62;88.61
72355;SHT30;60314;55.040;73.076;2022-09-27T12:40:07;0.64;88.58
72355;SHT30;60314;55.040;73.076;2022-09-27T12:42:51;0.60;88.18
72355;SHT30;60314;55.040;73.076;2022-09-27T12:46:01;0.60;88.19
72355;SHT30;60314;55.040;73.076;2022-09-27T12:51:35;0.57;88.08
72355;SHT30;60314;55.040;73.076;2022-09-27T13:00:38;0.50;89.15
72355;SHT30;60314;55.040;73.076;2022-09-27T13:14:20;0.38;89.09
72355;SHT30;60314;55.040;73.076;2022-09-27T13:16:48;0.34;88.79
72355;SHT30;60314;55.040;73.076;2022-09-27T13:22:08;0.31;89.08
72355;SHT30;60314;55.040;73.076;2022-09-27T13:25:48;0.28;89.06
72355;SHT30;60314;55.040;73.076;2022-09-27T13:36:31;0.34;89.36
72355;SHT30;60314;55.040;73.076;2022-09-27T13:39:19;0.33;89.06
72355;SHT30;60314;55.040;73.076;2022-09-27T13:42:18;0.36;89.19
72355;SHT30;60314;55.040;73.076;2022-09-27T13:47:36;0.34;88.81
72355;SHT30;60314;55.040;73.076;2022-09-27T13:50:25;0.34;89.21
72355;SHT30;60314;55.040;73.076;2022-09-27T13:53:15;0.37;88.84
72355;SHT30;60314;55.040;73.076;2022-09-27T13:55:46;0.36;88.58
72355;SHT30;60314;55.040;73.076;2022-09-27T13:58:44;0.40;88.31
72355;SHT30;60314;55.040;73.076;2022-09-27T14:02:24;0.38;88.98
72355;SHT30;60314;55.040;73.076;2022-09-27T14:04:55;0.38;88.45
72355;SHT30;60314;55.040;73.076;2022-09-27T14:07:42;0.40;88.21
72355;SHT30;60314;55.040;73.076;2022-09-27T14:10:16;0.40;88.20
72355;SHT30;60314;55.040;73.076;2022-09-27T14:12:46;0.40;88.10
72355;SHT30;60314;55.040;73.076;2022-09-27T14:15:22;0.41;88.21
72355;SHT30;60314;55.040;73.076;2022-09-27T14:17:52;0.43;88.05
72355;SHT30;60314;55.040;73.076;2022-09-27T14:20:37;0.44;87.96
72355;SHT30;60314;55.040;73.076;2022-09-27T14:23:15;0.47;87.89
72355;SHT30;60314;55.040;73.076;2022-09-27T14:25:45;0.47;87.84
72355;SHT30;60314;55.040;73.076;2022-09-27T14:28:26;0.50;87.93
72355;SHT30;60314;55.040;73.076;2022-09-27T14:31:21;0.54;87.86
72355;SHT30;60314;55.040;73.076;2022-09-27T14:34:14;0.54;87.70
72355;SHT30;60314;55.040;73.076;2022-09-27T14:36:53;0.54;87.26
72355;SHT30;60314;55.040;73.076;2022-09-27T14:39:55;0.51;87.54
72355;SHT30;60314;55.040;73.076;2022-09-27T14:42:33;0.48;87.70
72355;SHT30;60314;55.040;73.076;2022-09-27T14:45:23;0.45;87.37
72355;SHT30;60314;55.040;73.076;2022-09-27T14:47:51;0.41;87.77
72355;SHT30;60314;55.040;73.076;2022-09-27T14:50:23;0.43;87.89
72355;SHT30;60314;55.040;73.076;2022-09-27T14:52:50;0.38;87.59
72355;SHT30;60314;55.040;73.076;2022-09-27T14:55:28;0.40;88.16
72355;SHT30;60314;55.040;73.076;2022-09-27T14:57:58;0.41;87.75
72355;SHT30;60314;55.040;73.076;2022-09-27T15:00:28;0.43;88.20
72355;SHT30;60314;55.040;73.076;2022-09-27T15:03:02;0.47;88.17
72355;SHT30;60314;55.040;73.076;2022-09-27T15:05:40;0.43;87.99
72355;SHT30;60314;55.040;73.076;2022-09-27T15:08:10;0.44;88.03
72355;SHT30;60314;55.040;73.076;2022-09-27T15:10:42;0.47;88.01
72355;SHT30;60314;55.040;73.076;2022-09-27T15:13:14;0.43;88.08
72355;SHT30;60314;55.040;73.076;2022-09-27T15:15:41;0.43;88.01
72355;SHT30;60314;55.040;73.076;2022-09-27T15:18:40;0.44;88.31
72355;SHT30;60314;55.040;73.076;2022-09-27T15:21:09;0.41;88.26
72355;SHT30;60314;55.040;73.076;2022-09-27T15:23:39;0.43;88.20
72355;SHT30;60314;55.040;73.076;2022-09-27T15:26:23;0.43;88.25
72355;SHT30;60314;55.040;73.076;2022-09-27T15:28:52;0.44;88.05
72355;SHT30;60314;55.040;73.076;2022-09-27T15:31:32;0.41;87.93
72355;SHT30;60314;55.040;73.076;2022-09-27T15:34:00;0.43;88.24
72355;SHT30;60314;55.040;73.076;2022-09-27T15:39:26;0.44;87.86
72355;SHT30;60314;55.040;73.076;2022-09-27T15:42:13;0.41;88.13
72355;SHT30;60314;55.040;73.076;2022-09-27T15:44:50;0.43;88.23
72355;SHT30;60314;55.040;73.076;2022-09-27T15:52:52;0.41;88.08
72355;SHT30;60314;55.040;73.076;2022-09-27T15:55:25;0.40;88.17
72355;SHT30;60314;55.040;73.076;2022-09-27T15:57:54;0.41;88.19
72355;SHT30;60314;55.040;73.076;2022-09-27T16:00:25;0.45;87.85
72355;SHT30;60314;55.040;73.076;2022-09-27T16:02:51;0.48;87.68
72355;SHT30;60314;55.040;73.076;2022-09-27T16:05:19;0.48;87.59
72355;SHT30;60314;55.040;73.076;2022-09-27T16:07:50;0.45;87.38
72355;SHT30;60314;55.040;73.076;2022-09-27T16:10:23;0.51;87.58
72355;SHT30;60314;55.040;73.076;2022-09-27T16:12:51;0.53;87.08
72355;SHT30;60314;55.040;73.076;2022-09-27T16:15:17;0.51;86.95
72355;SHT30;60314;55.040;73.076;2022-09-27T16:17:44;0.53;86.48
72355;SHT30;60314;55.040;73.076;2022-09-27T16:20:23;0.53;86.81
72355;SHT30;60314;55.040;73.076;2022-09-27T16:22:56;0.57;86.70
72355;SHT30;60314;55.040;73.076;2022-09-27T16:25:23;0.58;86.84
72355;SHT30;60314;55.040;73.076;2022-09-27T16:27:50;0.60;86.66
72355;SHT30;60314;55.040;73.076;2022-09-27T16:30:17;0.57;86.28
72355;SHT30;60314;55.040;73.076;2022-09-27T16:32:47;0.58;86.94
72355;SHT30;60314;55.040;73.076;2022-09-27T16:35:15;0.55;86.57
72355;SHT30;60314;55.040;73.076;2022-09-27T16:37:42;0.57;86.59
72355;SHT30;60314;55.040;73.076;2022-09-27T16:40:09;0.55;86.95
72355;SHT30;60314;55.040;73.076;2022-09-27T16:42:36;0.54;86.70
72355;SHT30;60314;55.040;73.076;2022-09-27T16:45:05;0.57;86.79
72355;SHT30;60314;55.040;73.076;2022-09-27T16:47:32;0.60;86.53
72355;SHT30;60314;55.040;73.076;2022-09-27T16:49:59;0.62;86.31
72355;SHT30;60314;55.040;73.076;2022-09-27T16:52:44;0.61;86.58
72355;SHT30;60314;55.040;73.076;2022-09-27T16:55:15;0.65;86.41
72355;SHT30;60314;55.040;73.076;2022-09-27T16:57:58;0.64;86.53
72355;SHT30;60314;55.040;73.076;2022-09-27T17:00:25;0.62;86.47
72355;SHT30;60314;55.040;73.076;2022-09-27T17:02:52;0.69;86.78
72355;SHT30;60314;55.040;73.076;2022-09-27T17:05:19;0.74;86.64
72355;SHT30;60314;55.040;73.076;2022-09-27T17:07:51;0.72;86.14
72355;SHT30;60314;55.040;73.076;2022-09-27T17:10:19;0.69;86.49
72355;SHT30;60314;55.040;73.076;2022-09-27T17:12:46;0.69;86.32
72355;SHT30;60314;55.040;73.076;2022-09-27T17:15:14;0.69;86.36
72355;SHT30;60314;55.040;73.076;2022-09-27T17:17:41;0.75;86.25
72355;SHT30;60314;55.040;73.076;2022-09-27T17:20:07;0.76;86.25
72355;SHT30;60314;55.040;73.076;2022-09-27T17:22:34;0.74;86.47
72355;SHT30;60314;55.040;73.076;2022-09-27T17:25:00;0.71;86.52
72355;SHT30;60314;55.040;73.076;2022-09-27T17:27:27;0.72;86.63
72355;SHT30;60314;55.040;73.076;2022-09-27T17:29:54;0.74;86.61
72355;SHT30;60314;55.040;73.076;2022-09-27T17:32:20;0.72;86.63
72355;SHT30;60314;55.040;73.076;2022-09-27T17:34:50;0.74;86.47
72355;SHT30;60314;55.040;73.076;2022-09-27T17:37:17;0.72;86.36
72355;SHT30;60314;55.040;73.076;2022-09-27T17:39:43;0.76;86.42
72355;SHT30;60314;55.040;73.076;2022-09-27T17:42:10;0.74;86.47
72355;SHT30;60314;55.040;73.076;2022-09-27T17:44:37;0.74;86.60
72355;SHT30;60314;55.040;73.076;2022-09-27T17:47:04;0.72;86.41
72355;SHT30;60314;55.040;73.076;2022-09-27T17:49:49;0.76;86.04
72355;SHT30;60314;55.040;73.076;2022-09-27T17:52:34;0.76;86.32
72355;SHT30;60314;55.040;73.076;2022-09-27T17:55:00;0.79;86.15
72355;SHT30;60314;55.040;73.076;2022-09-27T17:57:28;0.82;86.25
72355;SHT30;60314;55.040;73.076;2022-09-27T17:59:55;0.84;86.10
72355;SHT30;60314;55.040;73.076;2022-09-27T18:02:24;0.88;86.12
72355;SHT30;60314;55.040;73.076;2022-09-27T18:04:52;0.92;85.67
72355;SHT30;60314;55.040;73.076;2022-09-27T18:07:19;0.91;85.93
72355;SHT30;60314;55.040;73.076;2022-09-27T18:09:46;1.02;85.84
72355;SHT30;60314;55.040;73.076;2022-09-27T18:12:15;1.07;85.82
72355;SHT30;60314;55.040;73.076;2022-09-27T18:14:42;1.09;85.27
72355;SHT30;60314;55.040;73.076;2022-09-27T18:17:09;1.12;85.06
72355;SHT30;60314;55.040;73.076;2022-09-27T18:19:38;1.10;84.79
72355;SHT30;60314;55.040;73.076;2022-09-27T18:22:05;1.03;84.88
72355;SHT30;60314;55.040;73.076;2022-09-27T18:24:37;1.12;85.31
72355;SHT30;60314;55.040;73.076;2022-09-27T18:27:03;1.17;84.93
72355;SHT30;60314;55.040;73.076;2022-09-27T18:29:32;1.17;84.36
72355;SHT30;60314;55.040;73.076;2022-09-27T18:31:58;1.06;84.84
72355;SHT30;60314;55.040;73.076;2022-09-27T18:34:27;1.02;85.07
72355;SHT30;60314;55.040;73.076;2022-09-27T18:36:53;1.03;85.22
72355;SHT30;60314;55.040;73.076;2022-09-27T18:39:20;1.03;85.33
72355;SHT30;60314;55.040;73.076;2022-09-27T18:41:47;0.97;85.50
72355;SHT30;60314;55.040;73.076;2022-09-27T18:44:17;0.97;85.69
72355;SHT30;60314;55.040;73.076;2022-09-27T18:46:44;0.96;85.46
72355;SHT30;60314;55.040;73.076;2022-09-27T18:49:14;0.93;85.52
72355;SHT30;60314;55.040;73.076;2022-09-27T18:51:42;0.92;85.95